Espace membre
Imprimable
Challenges > Delhalle - Dinant, 27/08/2006, BEL - La Descente de la Lesse
Liste des rapports > Delhalle - 23,5km - Classement scratch
Recherche: Page: [1] 2
674 Entrées
 
Les réclamations ne sont plus acceptées, les résultats sont considérés comme définitifs.
Catégorie
PosNrNomAgeIOCLigueEquipeRéelTempsTkmMoy.RangNomPtsLocalité
1.48DUPONT Eddy37BELONHOXY20001:22:361:22:373:31 17.071SEN1135ECAUSSINNES
2.2439VAN REUSEL Jérôme32BELESM1:23:291:23:303:34 16.892SEN1123LOBBES
3.2580DEKEYSER Jonathan25BEL1:24:271:24:323:36 16.683SEN1110
4.1134VANDERBECK Yves38BELRIWARONVAU1:24:431:24:453:37 16.644SEN1106MALONNE
5.9DEVEIRMAN Didier26BELCSFTRAINING 71:26:481:26:493:42 16.245SEN1080BEERSEL
6.2288FAVEAUX Thierry43BELARCHJOGGING PLUS1:27:361:27:373:44 16.091VE11070LEIGNON
7.851COLSON Stephane41BELSPAJOGGPLUS1:28:151:28:163:46 15.972VE11061GRACE-HOLLOGNE
8.163NUTELET Carlos52BELCABW1:28:391:28:403:47 15.901VE21056ECAUSSINNES
9.2325HUNTER Trevor37GBRHANDY CROSS RUN1:29:291:29:323:49 15.756SEN10453ED
10.2523BEAUPERIN Christian43FRAPSA ACC1:30:101:30:163:51 15.623VE11037
11.2263DE ROMREE Ghislain30BELCSDY1:31:031:31:053:53 15.487SEN1026COURT-ST-ETIENNE
12.411RODRIGUEZ Luis46BELCEPAL1:31:011:31:073:53 15.474VE11026TUBIZE
13.6HUYGHE Vincent43BEL1:31:391:31:423:55 15.385VE11018JEMAPPES
14.1529LOMBART Frederic39BEL1:32:181:32:213:56 15.278SEN1010GEMBLOUX
15.2285ELLEBOUDT Guillaume31FRAJ C HERZEELE1:32:491:32:523:58 15.189SEN1003HOUTKERQUE
16.804DILIBERTO Antonino39BELJOGGPLUS1:32:581:33:003:58 15.1610SEN1001CRISNEE
17.2405RICHARD Pierre42BELCSDY1:33:091:33:113:58 15.136VE1998LIMELETTE
18.2300GODFRIN Marc41BELARCH1:33:201:33:243:59 15.107VE1996FINNEVAUX
19.2044ROSSI Claude48BELJOGGPLUS1:33:261:33:293:59 15.088VE1994YVOIR
20.149SOHNLE Erich26BELONHTORTUES1:33:421:33:434:00 15.0511SEN991CHAUSSEE-NOTRE-DAME
21.11DUBOIS Michel49BELHERV1:34:231:34:304:02 14.929VE1982WELKENRAEDT
22.2472FRITZ Didier45BELPSSACCHA1:34:281:34:334:02 14.9110VE1981
23.2404RICHARD Andre52BELARCH1:35:081:35:104:03 14.822VE2973DINANT
24.2282DUBOIS Jean-Philippe27BELJ.E.T.1:35:251:35:274:04 14.7712SEN969JAMBES
25.1185DARTE Eric42BELSMAC1:35:431:35:454:05 14.7311VE1965LEUZE-EGHEZEE
26.2554VERTE Patrick29BELAC DAMP1:35:561:36:014:06 14.6813SEN962BECKERICH
27.2316HAMON Gerard40FRA1:36:071:36:104:06 14.6612VE1960TRIGAVOU
28.1448HANOT Serge43BELUSBWRONVAU1:36:161:36:214:06 14.6313VE1957LATHUY
29.2307GRANDJEAN Pierre31BEL1:36:421:36:464:08 14.5714SEN952EREZÉE
30.541FILLEE Eric46BELUACDILAVILE1:37:071:37:084:08 14.5214VE1947CHATELINEAU
31.679MORONE Yves39BELRCNAMUR1:37:061:37:114:09 14.5115SEN947HAMOIS
32.2520HENRION Patrick48BELACCM1:37:271:37:334:10 14.4515VE1943
33.467LENAERS Charles D.47BEL1:37:401:37:444:10 14.4316VE1940LIEGE
34.2299GHYSELINCK Gunther35BELRUN FOR FUN1:38:101:38:154:11 14.3516SEN934ZOTTEGEM
35.131LEMAIRE Philippe40BELRONVAU1:38:181:38:204:12 14.3417VE1932LASNE
36.1398GILLET J.Paul60BELISV1:38:191:38:244:12 14.331VE3931VIRTON
37.1540VANDEVELDE Francis49BELFCHA1:38:321:38:364:12 14.3018VE1928LINTER
38.1172DIEPENDAELE Rudi43BELACLOTOTAL1:38:451:38:504:13 14.2719VE1925LA HESTRE
39.1530DEGEIMBRE Michel44BELARCH1:39:231:39:254:14 14.1820VE1918AWAGNE
40.2029VERRUE Vincent30BELWALCOURSE1:39:351:39:414:15 14.1417SEN915WALCOURT
41.675TRUYERS Hugo58BELDCLA1:40:071:40:134:16 14.073VE2909LINKHOUT
42.297BOUCHAT Albert39BELJOGGPLUS1:40:101:40:194:17 14.0618SEN908MEUX
43.2400PRANCKL Michael33BELARCH1:40:431:40:464:18 13.9919SEN902UCCLE
44.689KRINGS Viktor46BELTVK HBG1:40:431:40:484:18 13.9921VE1901BÜTGENBACH
45.2603BOURDON Alain43BELIXELJOGGPLUS1:41:071:41:124:19 13.9322VE1897BRUXELLES
46.959BARBIEUX Patrice49BEL1:41:111:41:174:19 13.9223VE1895MALONNE
47.1390PAULUS Philippe45BELESM1:41:121:41:234:19 13.9124VE1895MONT-SUR-MARCHIENNE
48.2487OUBOUSKOUR Brahim36BEL1:41:191:41:364:20 13.8820SEN893JUMET
49.2440VANCASTER Pierre33BELNAC1:41:461:41:524:21 13.8421SEN887ECAUSSINNES
50.356CARETTE Alain40BELJCL1:41:561:41:584:21 13.8325VE1886TEMPLEUVE
51.2337KAUTZMANN Luc40FRAVOSGIRUNNERS1:42:161:42:254:22 13.7726VE1881NIEDERBRONN
52.1109HANOTIAU Jean-Marc44BELCEPAL1:42:241:42:334:22 13.7527VE1880SAINT-JOSSE-TEN-NOODE
53.2237CASTERMANS David35BELOCANVO2NAMUR1:43:001:43:004:23 13.6922SEN873RHISNES
54.2433VAN ACKER Toon49BELSODIBRUG1:42:521:43:044:24 13.6828VE1874RUDDERVOORDE
55.1814DE CRAEMER Gilbert39BEL1:43:031:43:094:24 13.6723SEN871
56.2534VERDOODT Gilbert50BELACP1:43:191:43:244:24 13.644VE2868ASSE
57.292BLONDEAUX Yannick30BELWALCOURT1:43:191:43:264:25 13.6324SEN867THY LE CHÂTEAU
58.2347LANEAU Philippe49FRARETHEL COURIR1:43:271:43:294:25 13.6329VE1866ROCQUIGNY
59.2239CELLIER Thierry34BEL1:43:281:43:304:25 13.6225SEN865BEAUVECHAIN
60.2383MORVAN Jean-Gael31FRATOULOUSE1:43:231:43:384:25 13.6126SEN865TOULOUSE
61.2009DUPRET Didier39BELBAC1:43:401:43:464:25 13.5927SEN862CHERCQ
62.1278LORANT Manu44BEL1:43:441:43:504:26 13.5830VE1861MALONNE
63.2425SPARACIO Bruno33BEL1:44:101:44:114:26 13.5328SEN856TAMINES
64.2429THIBOUT Jean Marc48BEL1:44:101:44:144:27 13.5331VE1855OOSTENDE
65.519VANTSIOTIS Anasthase53BELFLEU1:44:171:44:214:27 13.515VE2854LE ROUX
66.1388LECOCQ Marc45BELUACTHIMEON1:44:151:44:214:27 13.5132VE1853PONT-A-CELLES
67.2019SOLBREUX Yves42BEL1:44:241:44:294:27 13.4933VE1851RAMILLIES
68.2306GRANDJEAN Benoit38BEL1:44:271:44:364:28 13.4829SEN850PROFONDEVILLE
69.327CANTELLA Massimo33BEL1:44:331:44:384:28 13.4830SEN849
70.1016HENRY Andre46BELTENDONS1:44:331:44:404:28 13.4734VE1848LA HULPE
71.2474DE BACKER Erwin49BEL1:44:231:44:404:28 13.4735VE1850ANTWERPEN
72.2465FRITZ Alain43BELPSSACCHA1:44:361:44:434:28 13.4636VE1847
73.2225BONATO Patrick46BEL1:44:361:44:444:28 13.4637VE1847MECHELEN
74.2452WEISS Christophe39FRAVOSGIRUNNERS1:44:371:44:454:28 13.4631SEN846NIEDERBRONN
75.228MARCHAL Yves36BELRUN WILD1:44:441:44:494:28 13.4532SEN844VEDRIN
76.2393PAQUET Jean Pierre43FRAPSA ACC1:44:491:44:554:28 13.4438VE1843SAINT LAURENT
77.223BOSCH Adrien15BELAMAY1:45:001:45:034:29 13.421ESP840VINALMONT
78.1370LEWILLION Philippe40BELFER1:45:061:45:134:29 13.4039VE1839FRAMERIES
79.906DELVAUX Paul62BELACA1:45:141:45:204:29 13.392VE3837DIEPENBEEK
80.2045BRANDENBOURG Jean-Jacques50BEL1:45:211:45:234:30 13.386VE2835FALMAGNE
81.1650NEYMAN Eric38BEL1:45:221:45:344:30 13.3633SEN835HERON
82.232VANDENBROECK Tom28BELDCLA1:45:301:45:354:30 13.3534SEN833
83.2038DURITA Zolika42BELJ.E.T.1:45:221:45:424:30 13.3440VE1834ENGHIEN
84.2318HEYDEN Christian42BEL1:45:421:45:504:31 13.3241VE1830ROCHEFORT
85.2059POULAIN Pascal42BEL1:45:361:45:514:31 13.3242VE1830SUARLEE
86.2507LAMETTE Pierre47BELARCHARCH1:45:481:45:514:31 13.3243VE1828
87.2483ROBIN Julien22BEL1:45:591:46:014:31 13.3035SEN825
88.1136GAUTIER Jacques44BEL1:45:571:46:044:31 13.2944VE1825MEUX
89.219DEWIT Raymond36BELAMAY1:45:581:46:084:31 13.2936SEN825WANZE
90.584UBIETA Didier45BELAMAY1:46:071:46:094:32 13.2845VE1822VINALMONT
91.2430TIEMEIJER Richard41NLDDREAMTEAM1:46:081:46:114:32 13.2846VE1822PEPINGEN
92.2464FCHARLOT Christelle32BELSMAC1:46:051:46:114:32 13.281DAM822SAMBREVILLE
93.557FONDU Jacques56BELFLEUESM1:46:021:46:164:32 13.277VE2822MONT-SUR-MARCHIENNE
94.2229BOUILLON Pascal49FRAFJEP ATTIGNY1:46:101:46:184:32 13.2647VE1820ATTIGNY
95.205RASSART Patrick48BELACLO1:45:591:46:204:32 13.2648VE1821MORLANWELZ
96.271GERLACHE Mathieu41BELCE CDO1:46:251:46:274:32 13.2549VE1817DAUSSOULX
97.1069DUTRIEUX Fernand35BELVELAINES1:46:261:46:284:32 13.2437SEN816BAUDOUR
98.313FLEGRAND Francine36BEL1:46:291:46:314:32 13.242DAM815VEDRIN
99.387BOSKIN Bernard18BEL1:46:391:46:484:33 13.202ESP813STAVELOT
100.2446VANRIE Pierre39BEL1:46:421:46:504:33 13.2038SEN812BRUXELLES
101.2215BATEMAN James39GBRHANDY CROSS RUN1:46:431:47:024:34 13.1739SEN8111TN
102.1765VAN DER LINDEN Paul57BEL1:47:111:47:144:34 13.158VE2806MALONNE
103.5741MOLITOR Andre45BEL1:47:261:47:294:35 13.1250VE1803HARGIMONT
104.2236CALLIER Philippe43FRATOS JURA1:47:291:47:354:35 13.1151VE1802MESNAY
105.2335JUSTINE Alain53BELRIWA1:47:421:47:434:36 13.099VE2799RIXENSART
106.485ROSILLON Dominique49BELARCH1:47:541:47:594:36 13.0652VE1797SOREE
107.2557JEANTY Eric48BEL1:48:051:48:074:37 13.0453VE1794
108.2253CRUCIFIX Etienne40BELFLOT1:48:061:48:084:37 13.0454VE1794ANTHÉE
109.2515ROSITANO Franco52BELJC BAUDOUR1:48:141:48:184:37 13.0210VE2792BAUDOUR
110.2578FLEROUX Claire25BEL1:48:121:48:304:38 13.003DAM792
111.2533FVANLOMMEL Linda31BELARISTA1:48:321:48:374:38 12.984DAM788HOUTVENNE
112.2466FURNARI Roberto50BELJ.E.T.1:48:231:48:434:38 12.9711VE2789TUBIZE
113.1815DIEUDONNE Emile53BELARCH1:48:491:49:064:39 12.9212VE2784DINANT
114.314LEROY Patrick35BEL1:48:521:49:194:40 12.9040SEN783MARBEHAN
115.2284ELKALISCH Abdel46BELDREAMTEAM1:49:181:49:214:40 12.8955VE1778BRUSSEL
116.2230BOULA Karim19BELARCH1:49:291:49:314:40 12.873ESP776DINANT
117.521RAEYMAEKERS Ludovic52BELBVAC1:49:231:49:324:40 12.8713VE2776MORTSEL
118.1980VIDICK Jean-Luc53BEL1:49:311:49:344:40 12.8714VE2775BRUXELLES
119.392FBRIALMONT Irene49BELSPASPA MON1:49:331:49:354:40 12.871AI1774SPA
120.2503WYNINCK Jan40BEL1:49:301:49:384:40 12.8656VE1774
121.2323HUBERT Pascal40BELARCH1:49:381:49:534:41 12.8357VE1772BRAIBANT
122.2010FFAVEAUX Patricia39BELARCH1:49:511:49:534:41 12.835DAM770CINEY
123.1374FALEXANDRE Francoise51BELOCAN1:50:021:50:094:42 12.801AI2767JAMBES
124.2371MARTHOZ Pascal37BELCEPAL1:50:081:50:164:42 12.7941SEN766IXELLES
125.781OLIVIER Bob47BELACOREYE1:50:151:50:194:42 12.7858VE1764WAREMME
126.1867RUELLE Jean34BELETCHIEVR1:50:151:50:214:42 12.7842SEN764WEZEMBEEK-OPPEM
127.2290FIRRE Gerald41BEL1:50:171:50:244:42 12.7759VE1763MESSANCY
128.2350LECLEF Jose49FRAPSA ACC1:50:171:50:324:43 12.7660VE1762NOUZONVILLE
129.2469MESTER Marcel59BEL1:50:281:50:354:43 12.7515VE2760FRAMERIES
130.2591HILDERBON Luc54BEL1:50:381:50:474:43 12.7316VE2758
131.727LEUS Stefan39BEL1:50:331:50:504:43 12.7243SEN759HOLSBEEK
132.357CREMER Patrick48BELRT BRAIVES1:50:481:50:534:44 12.7261VE1755HANNUT
133.2028VERHEYEN Cédric28BEL1:50:571:51:044:44 12.7044SEN754ON
134.2556LEMAIRE Eric39BEL1:50:491:51:134:44 12.6845SEN754
135.2410ROSIER Dany45BEL1:51:141:51:184:45 12.6762VE1750DINANT
136.2344LADOUCE Pierre42BELARCH1:51:031:51:204:45 12.6663VE1751MOUSTIER SUR SAMBRE
137.2451FWARD Caroline28GBRHANDY CROSS RUN1:51:111:51:234:45 12.666DAM749HIGH WYCOMBE
138.2535GAZENGEL Didier48FRA1:51:031:51:234:45 12.6664VE1750
139.378BLAUWART Emmanuel38BELETCHIEVR1:51:181:51:344:45 12.6446SEN747HERCHIES
140.360WAROUX Patrick43BELETCHIEVR1:51:191:51:344:45 12.6465VE1746CASTEAU
141.2241CLARINVAL Antoine18BELJCCS1:51:241:51:594:46 12.594ESP745GEDINNE
142.2353KAYE Paul37BEL1:51:131:52:014:46 12.5947SEN746BRUXELLES
143.2531DELVAUX Philippe43BELSMAC1:51:511:52:014:46 12.5966VE1740JAMBES (NAMUR)
144.2509FONTAINE Philippe42BELSMAC1:51:541:52:084:47 12.5767VE1739NAMUR
145.2375MÉLOTTE Henri42BELRUNPRO1:52:031:52:184:47 12.5668VE1737PROFONDEVILLE
146.2576PIERLOT Serge48BEL1:52:201:52:354:48 12.5269VE1734
147.1464DESSEILLE Ernest52BEL1:52:051:52:434:48 12.5117VE2736WÉPION
148.404TILBURGS Frank39BELAVN1:52:351:52:524:49 12.4948SEN730MEER
149.193DI BIASE Renato41BELBOUFFIOL1:52:391:52:554:49 12.4970VE1729COUILLET
150.310ANTENUCCI Mauro49BELFLEUESM1:52:481:53:024:49 12.4771VE1727GOSSELIES
151.2223BODSON Dominique35BEL1:52:541:53:064:49 12.4749SEN726GRAND-HALLEUX
152.2555VOLPI Alexandre50FRA1:52:541:53:184:50 12.4418VE2725
153.156DUMONT J.Luc49BELACLOST BERNARD1:53:011:53:204:50 12.4472VE1724LA LOUVIERE
154.1828EVRARD Michel49BELARCH1:53:161:53:214:50 12.4473VE1721WELLIN
155.2544AUDRAN Frederic33FRA1:53:001:53:244:50 12.4350SEN723VIREUX WALLERAND
156.2559GIRARD Pascal39BEL1:53:001:53:274:50 12.4351SEN723
157.2528BAROTH Roger52BELFMAC1:53:301:53:344:50 12.4219VE2717
158.2798MELLARD Jean-Emile24BEL1:53:141:53:394:51 12.4152SEN719
159.148BERTRAND Claude49BELSMAC1:53:111:53:404:51 12.4074VE1719FLAWINNE
160.2048DEHAS Djellali47FRAFREMEN1:53:251:53:484:51 12.3975VE1717AUBRIVES
161.2521PERRUQUET Xavier31FRA1:53:291:53:554:51 12.3853SEN715HAYBES SUR MEUSE
162.1737DETROZ Luc45BELRC NAMUR1:53:471:53:574:51 12.3776VE1712VEDRIN
163.656MONTESSINO J.Paul60BELCRACESM1:53:481:54:034:52 12.363VE3712MARCHIENNE-AU-PONT
164.2595BURTEMBOY Gregory29BEL1:54:001:54:044:52 12.3654SEN709
165.2340KRIER Benoit35BEL1:54:071:54:224:52 12.3355SEN708SELANGE
166.2413RUDY Augusteyns46BELHARAKA1:54:061:54:244:53 12.3377VE1707HEMIKSEM
167.1229HOUSSIER Didier41BEL1:54:181:54:274:53 12.3278VE1705VILVOORDE
168.1992FDAMBLON Regine51BELACLOBJB1:54:241:54:314:53 12.312AI2703LA LOUVIERE
169.2203AMET Didier41FRAVOSGIRUNNERS1:54:231:54:324:53 12.3179VE1703NIEDERBRONN
170.2256DAHOUT Stéphane46BEL1:54:361:54:394:53 12.3080VE1701CINEY
171.1881FBLAISE Christiane44BELARCH1:54:211:54:404:53 12.302AI1702ANTHEE
172.692ROBERT Michel56BELBOUFFIOLS/GERPI1:54:271:54:434:53 12.2920VE2701GERPINNES
173.693CHAUVIER J.Pierre46BELWALCOURT1:54:251:54:454:53 12.2981VE1701YVES-GOMEZEE
174.269NENNEN Arnaud43BELSMAC1:54:501:55:014:54 12.2682VE1696GELBRESSEE
175.1617PINDEVILLE Christian58BELRIWA1:54:521:55:044:54 12.2521VE2695WAVRE
176.2432VALANGE Jean45BELARCH1:54:581:55:064:54 12.2583VE1694SERINCHAMPS
177.2577PIER Jacques41BEL1:55:061:55:154:55 12.2384VE1692
178.2209BAILLY Jean-Luc29BELJUDO CLUB LOUVI1:54:441:55:224:55 12.2256SEN695LA LOUVIÈRE
179.1182GRANDMONT Andre45BELARCH1:55:151:55:254:55 12.2285VE1690DINANT
180.2374MARTIN Michel44FRAFJEP ATTIGNY1:55:181:55:264:55 12.2186VE1689GIVRY SUR AISNE
181.992LETHE Vincent46BELRONVAU1:55:211:55:314:55 12.2187VE1688TOURINNES-SAINT-LAMBERT
182.623PISCART Pierre46BELONHOXY20001:55:251:55:404:56 12.1988VE1687MONS
183.2292FFLORENT Régine48BELARCH1:55:401:55:444:56 12.183AI1684BELGIQUE
184.1631CADO Paul46BELFLEU1:55:381:55:454:56 12.1889VE1684LIGNY
185.2565DELERS Pascal43BEL1:55:361:55:494:56 12.1790VE1684
186.1454MUYTJENS Rene61BEL1:55:491:55:534:56 12.174VE3681OTTIGNIES
187.1773PAHAUT Christian49BELANTILOB1:55:441:55:534:56 12.1791VE1682LIMAL
188.270LAURENT Jacques56BELJC.BAUDOUR1:56:071:56:144:57 12.1322VE2677BAUDOUR
189.695DE DAPPER David33BELKIA LELEUX1:56:111:56:164:57 12.1357SEN676BRUXELLES
190.2369MARELLA Frank35BELTJ1:56:031:56:204:58 12.1258SEN677OHEY
191.1989FDEMOULIN Brigitte46BELSMAC1:56:161:56:204:58 12.124AI1675LUSTIN
192.2553DUMONT Luc46BEL1:56:191:56:354:58 12.0992VE1674
193.2490FGELYNS Leen49BELACHILLES1:56:131:56:384:58 12.095AI1674
194.2321HOULLE Daniel41FRAVOSGIRUNNERS1:56:051:56:494:59 12.0793VE1675NIEDERBRONN
195.2449VERMEERE Didier36BELJ.E.T.1:56:331:56:534:59 12.0659SEN670TUBIZE
196.2489GOULET Fabrice47BELLA MACERIENNE1:56:381:56:584:59 12.0594VE1669
197.2484HENDRICK Jean-Michel33BEL1:56:341:56:584:59 12.0560SEN669
198.353VALCKX Geert43BELASSURBANIPAL1:56:401:56:594:59 12.0595VE1667BERTEM
199.33GEORGES François50BEL1:56:521:56:594:59 12.0523VE2665IXELLES
200.1070CARTON Hubert50BEL1:56:581:57:024:59 12.0524VE2664SOVET
201.2061VAN DER MEULEN Bernard48BELTORTUES1:56:321:57:054:59 12.0496VE1667
202.2014PLUQUET Georges49BELE.T.CHIÈVRES1:56:301:57:064:59 12.0497VE1667ATH
203.2597PILETTE Benoit29BEL1:56:521:57:075:00 12.0461SEN663
204.2441VANDEGAER Luc46BEL1:56:531:57:105:00 12.0398VE1662KESSEL-LO
205.2354KOTECKI Eric43FRA1:56:551:57:135:00 12.0399VE1662ESCAUDAIN
206.382SERON Benoit45BEL1:57:141:57:215:00 12.02100VE1658MALONNE
207.2462FLABAT Patrick44BEL1:57:131:57:225:00 12.01101VE1658GREZ-DOICEAU
208.2287FAGOT Bernard53FRAPSA ACC1:57:091:57:235:00 12.0125VE2658LUMES
209.2275DEVILDER Patrick44BEL1:57:141:57:245:00 12.01102VE1657ST ANDRIES
210.2361LICHTHERTE Eric32BEL1:57:131:57:255:00 12.0162SEN656HULSONNIAUX
211.2013LESNE Didier42BELLDLV1:57:081:57:315:01 12.00103VE1657BRAINE L ALLEUD
212.2525GIVRON Regis16BEL1:57:071:57:325:01 12.005ESP656
213.2360LEVAQUE Sebastien34BEL1:57:201:57:365:01 11.9963SEN654ANDERLECHT
214.2261DE MAEYER Jan38BELHARAKA1:57:231:57:425:01 11.9864SEN653WILRIJK
215.2329JACQUEMIN Benoît37BELC.A.AULNOYE-AYM1:57:411:57:445:01 11.9865SEN650HORNU
216.845GILLET Marc49BELJC HSH1:57:121:57:505:01 11.97104VE1654MONT SUR MARCHIENNE
217.1502BOUCHET Davy20BELHRC1:57:261:57:545:02 11.9666SEN651IZEL
218.2024VAN ERP Cor57NLDS.V. FORTUNA '61:57:481:57:555:02 11.9626VE2647SINT-OEDENRODE
219.2049DATTOLI Matteo47BELAMAY1:57:501:57:555:02 11.96105VE1646HUY
220.2050LIMET Eric42BELAMAY1:57:511:57:565:02 11.96106VE1646ERWEZ
221.415FROBERTI Daphne30BEL1:57:361:57:595:02 11.957DAM648
222.2245COLONVAL Jean47BEL1:57:461:58:015:02 11.95107VE1646CHATELET
223.2398PORREZ Jan34BELRUN FOR FUN1:57:471:58:105:02 11.9367SEN645ZOTTEGEM
224.1269DEPOORTER Yves41BELIBM SPORT1:58:141:58:225:03 11.91108VE1641VILVOORDE
225.2572COPPENS Wouter17BEL1:58:201:58:325:03 11.906ESP639
226.2422SMEULDERS Thomas34BELHARAKA1:58:161:58:355:03 11.8968SEN639NIEL
227.1480BOUCHET Fabrice47BELHRC1:58:281:58:565:04 11.86109VE1637IZEL
228.1714DELFOSSE Jacques50BELRCNAMUR1:58:441:59:155:05 11.8227VE2634LES BOSCAILLES
229.2470RABIN Christophe39BEL1:59:161:59:235:05 11.8169SEN629AUDERGHEM
230.2032BALAND Pascal42BEL1:59:151:59:285:06 11.80110VE1628HORNU
231.2251CRABBE Fabrice31BEL1:59:321:59:385:06 11.7970SEN625ANHÉE
232.811GIGOT Jacques39BELAXA TEAM1:59:131:59:405:06 11.7871SEN627BRUXELLES
233.266ROUSSEAU David33BELAXA TEAM1:59:141:59:415:06 11.7872SEN627VILLE EN HESBAYE
234.2488DE QUICK David21BEL1:59:351:59:435:06 11.7873SEN623DINANT
235.2391OOSTLAND Stéphane36BEL1:59:421:59:575:07 11.7574SEN621MAZY
236.334SKOWRONSKI Bernard34BEL1:59:442:00:015:07 11.7575SEN621ARSIMONT
237.224BARBIER Yves46BELUSBWUSBW ROADTEAM1:59:582:00:055:07 11.74111VE1618BRAINE-L'ALLEUD
238.2286EVRARD Didier41BELRUNORO1:59:532:00:075:07 11.74112VE1619BOIS-DE-VILLERS
239.2326HUYGE Stefan35BELRUN FOR FUN1:59:552:00:125:07 11.7376SEN618ZWALM
240.1469QUINET J.Paul56BELFLEU2:00:022:00:175:08 11.7228VE2616GILLY
241.2539FWYNROCK Christine45BEL1:59:542:00:185:08 11.726AI1617
242.2434VAN DE WAL Luc53BEL2:00:022:00:245:08 11.7129VE2615DEURNE
243.2602RICHARD Yves37BELFAC1:59:512:00:275:08 11.7177SEN616
244.2390NOEL Thierry39BEL2:00:002:00:305:08 11.7078SEN614NAMUR
245.526NORMAND Daniel45BELJCCS1:59:572:00:305:08 11.70113VE1614RIENNE
246.41RADERMECKER Alain48BELBOUFFIOL2:00:262:00:395:09 11.69114VE1610GOUGNIES
247.2319HOEBEKE Wim36BELRUN FOR FUN2:00:162:00:395:09 11.6979SEN611ZWALM
248.2519FPROVOOST Kathy30BEL2:00:052:00:405:09 11.698DAM612
249.366FLANSLOTS Viviane41BELAVN2:00:382:00:535:09 11.667AI1607MERKSPLAS
250.1735UITDEBROEKS Romain56BELACA2:00:412:00:555:09 11.6630VE2605ALKEN
251.2011FOSSEZ Pascal46BELESM2:00:122:00:575:09 11.66115VE1609CHÂTELINEAU
252.2213BARADEL Michel54FRAPSA ACC2:00:442:00:595:09 11.6531VE2604CHARLEVILLE MEZIERES
253.1643SMETS Johan40BEL2:00:382:01:045:10 11.65116VE1605LUBBEEK
254.2492FGEHENOT Myriam43BEL2:00:532:01:055:10 11.648AI1602NAMUR
255.2305GRANDHOMME Michel51FRAMETZ2:00:592:01:095:10 11.6432VE2600COURCELLES CHAUSSY
256.2506FDELLOT Marie-Laure42BEL2:01:032:01:145:10 11.639AI1599MEISE
257.2542WAUTHY Dominique48BEL2:00:542:01:225:10 11.62117VE1600RHISNES LA BRUYÈRE
258.2592BOQUE Didier41BEL2:01:142:01:225:10 11.62118VE1597
259.2060ADYNS Vincent45BELTNT2:01:092:01:245:10 11.61119VE1597WEPION
260.2546BELLEMANS Philippe42BEL2:00:392:01:285:11 11.61120VE1601
261.2003HIBO Benoît50BEL2:01:092:01:305:11 11.6033VE2596NAMUR
262.2355LEDRU Sylvain52FRAFJEP ATTIGNY2:01:212:01:325:11 11.6034VE2594ATTIGNY
263.2600POUSSEUX Dominique36BEL2:01:292:01:335:11 11.6080SEN592
264.2516FGUILLAUME Cecile39BELCPMVCPMV2:01:202:01:345:11 11.609DAM593
265.2494FCHEVIGNY Nadine39BEL2:01:192:01:435:11 11.5810DAM593
266.2545OULAD Ahmed47BEL2:01:192:01:435:11 11.58121VE1592
267.556RATINCKX Jean Philippe18BELRIWA2:01:412:01:545:12 11.577ESP588BIERGES
268.1333MARIEN Rik57BELVACH2:01:452:01:545:12 11.5735VE2587HASSELT
269.2407RIGUELLE François25BELFLEU2:01:402:01:585:12 11.5681SEN588CORROY-LE-CHÂTEAU
270.2381MOISE Cedric25BELRT BRAIVES2:01:582:02:075:12 11.5582SEN584HANNUT
271.2046PITZ Roger42BELLAC2:01:592:02:095:12 11.54122VE1584RAEREN
272.2568DARTOIS Didier38BEL2:01:542:02:105:12 11.5483SEN584
273.446CALIFICE Stephane29BEL2:02:072:02:125:12 11.5484SEN581CLERMONT
274.2027VAN HOUTUM Mari56NLDS.V. FORTUNA '62:02:062:02:135:13 11.5436VE2581SINT-OEDENRODE
275.2599HECQ Olivier40BEL2:02:072:02:225:13 11.52123VE1581
276.2514DEPOORTER Chris34BELTORRAC2:02:112:02:235:13 11.5285SEN579HOUTHULST
277.346LELOUP Yves52BELFLEU2:02:072:02:245:13 11.5237VE2580ST-AMAND
278.2247COLPAERT Didier47BELRIWA2:02:222:02:355:13 11.50124VE1577RIXENSART
279.755VAN HEULENBERGHE Frank50BEL2:02:272:02:405:14 11.4938VE2575GENT
280.2252CRISTOFOLI Maurizio53BELJET2:02:362:02:555:14 11.4739VE2574TUBIZE
281.2502RAIMOND Eric47BEL2:02:382:03:025:15 11.46125VE1573
282.365DESCHUYTENEER Marc27BELTORTUES2:03:022:03:095:15 11.4586SEN569HORRUES
283.2496FHAEST Nancy42BELTORRAC2:02:592:03:115:15 11.4510AI1569
284.1307HARMEGNIES Michel45BELSPIBOR2:03:002:03:135:15 11.44126VE1568HORNU
285.1745VOELL Guenter53DEULGMUETZE2:03:092:03:185:15 11.4440VE2566MONSCHAU
286.1668LUYPAERT Armand56BELGRIM2:03:132:03:245:16 11.4341VE2565MEISE
287.1058VERHOFSTADT Camille61BELJC HSH2:03:162:03:335:16 11.415VE3564MARBAIX-LA-TOUR
288.2377MESTRER Eric31BEL2:03:282:03:395:16 11.4087SEN562
289.2460JANSSENS Frédéric39BELASPUB2:03:122:03:395:16 11.4088SEN564ANDERLECHT
290.2333JANSSENS Thierry39BELASPUB2:03:132:03:405:16 11.4089SEN563IXELLES
291.2385MULIER Philippe35BEL2:03:302:03:425:16 11.4090SEN560
292.2581RAMELOT Regis25BEL2:03:042:03:445:16 11.4091SEN564
293.2508LIBEREK David29BELSYMBOLE2:03:232:03:445:16 11.4092SEN560
294.2349LEBEAUX Patrick42FRAFJEP ATTIGNY2:03:362:03:485:17 11.39127VE1558ATTIGNY
295.1994FVAN DE MOORTEL Heidi39BEL2:03:532:04:015:17 11.3711DAM555TREMELO
296.2234BUSTIN Alain56BELJOGGING PLUS2:03:372:04:025:17 11.3742VE2557BOUGE
297.2262DE MEES Marc64BEL2:03:522:04:025:17 11.376VE3554RIJMENAM
298.2358LELOUP Daniel59BELRIWA2:03:562:04:125:18 11.3543VE2553RIXENSART
299.2415SCAILLET Vincent37BEL2:03:592:04:165:18 11.3593SEN552HEER
300.2392PAINDAVOINE Jean Claude48BELONH2:03:462:04:175:18 11.35128VE1554SILLY
301.2244COLMANT Olivier48BELDÉFENSE2:03:592:04:215:18 11.34129VE1551INCOURT
302.2424SOMMELETTE Pascal33BEL2:04:022:04:225:18 11.3494SEN550BRUXELLES
303.1967DEVOS Serge35BEL2:03:592:04:295:18 11.3395SEN550BRUXELLES
304.2598GUHIANO Emmanuel28BEL2:04:042:04:295:18 11.3396SEN549
305.2532DUBOIS Pascal44BELRCN2:04:452:04:565:19 11.29130VE1543GODINE
306.43SEGHIN Vincent41BEL2:04:312:04:575:20 11.28131VE1544THUIN
307.2235FBUZIN Donatienne39BEL2:04:452:05:015:20 11.2812DAM542HAN SUR LESSE
308.354RIGAUX Didier41BELHRC2:04:392:05:045:20 11.27132VE1542MARBEHAN
309.2450FVERSCHUEREN Ellen30BEL2:05:132:05:215:21 11.2513DAM537MECHELEN
310.2574FOURNEAUX Jean-Marie55BEL2:04:562:05:225:21 11.2544VE2539
311.2575CHIEMENTIN XavierBEL2:04:562:05:235:21 11.251XXX538
312.2480BAURIN Herve41BELET CHIEVRES2:05:102:05:235:21 11.25133VE1536
313.2590MERGNY Michel51BELTNT2:05:002:05:275:21 11.2445VE2537MALONNE
314.2283DUCHENE Henri46BELMAKA'S 212:05:182:05:295:21 11.24134VE1533YVOIR
315.2040FWOLTER Marie-Therese50LUXCELTIC2:05:052:05:355:21 11.233AI2535PRATZ
316.1442LEBEAU Fernand61BELAXA TEAM2:05:372:05:415:21 11.227VE3530ZELLIK
317.2426SWINKELS Dick51NLDS.V. FORTUNA '62:05:452:05:515:22 11.2046VE2528SINT-OEDENRODE
318.2208AUDOOR Alain48BEL2:05:222:05:515:22 11.20135VE1531VELAINE
319.2343KUPPENS Olivier36BEL2:05:172:05:595:22 11.1997SEN531TILFF
320.126CENNE Yves36BEL2:05:172:05:595:22 11.1998SEN531LIEGE
321.208BOUTEFEU Jacques46BELESMRRTC2:05:092:06:015:22 11.19136VE1531MONTIGNIES-SUR-SAMBRE
322.2056LESPINEUX Benoit40BELVICO2:05:222:06:025:22 11.19137VE1529HUY
323.2240CHARLIER Baudouin55BELJ.E.T2:05:492:06:085:23 11.1847VE2525OISQUERCQ
324.888RUBINO Michel46BELUACRRTC2:05:212:06:145:23 11.17138VE1528CHATELET
325.2315HAEGEMANS Paul44BELDURACELL2:06:092:06:305:23 11.15139VE1521WERCHTER
326.2569NANNE Didier42BEL2:06:202:06:375:24 11.14140VE1519
327.2445VANMAELE Didier41BEL2:06:362:06:475:24 11.12141VE1516SINT STEVENS WOLUWE
328.2339KRAUTLI Michael37BEL2:06:362:06:475:24 11.1299SEN516GANSHOREN
329.1561VAN LAETHEM Eloi54BELFLEUJOGGPLUS2:06:362:06:525:24 11.1148VE2515CHATELINEAU
330.2031BARNABA Fabrice41BEL2:06:352:06:535:24 11.11142VE1515AUTELHAUT-ARLON
331.2314GUILMIN Benoit45BELRUNPRO2:06:452:06:575:25 11.11143VE1513WÉPION
332.2313GUILLICK Claude42BELWAC2:06:372:07:005:25 11.10144VE1513WAREMME
333.2331FHUSTINGS Martine41BELWAC2:06:392:07:015:25 11.1011AI1513WAREMME
334.2291FLABAT Didier35BELAXA RUNNING TEA2:06:532:07:025:25 11.10100SEN510BRUXELLES
335.2437VAN KELST Luc30BELRC NAMUR2:06:302:07:085:25 11.09101SEN513JAMBES
336.3008DN2AR2K BEL2:07:092:07:135:25 11.082XXX507
337.2258DE BOER Peter44NLDDREAMTEAM2:07:092:07:135:25 11.08145VE1507PEPINGEN
338.2388NIGOT Francis47BEL2:07:052:07:175:25 11.08146VE1507SPY
339.2473HEMERYCK Willy47BELSODIBRUG2:07:012:07:175:25 11.08147VE1507BRUGGE
340.1198GOOSSENS Jean50BELSPTWAVRE2:06:402:07:215:26 11.0749VE2509WAVRE
341.2015RATINCKX Michel49BELRIWAHERMATHENAE2:07:142:07:245:26 11.07148VE1504BIERGES
342.2517GAILLAT Alain53BELJOGGING NATURE2:06:402:07:275:26 11.0650VE2508TRAZEGNIES
343.1590POPPE Christian47BEL2:07:082:07:275:26 11.06149VE1504MARCHE-EN-FAMENNE
344.2324HUGÉ Thibaut23BEL2:07:262:07:405:26 11.04102SEN501RIXENSART
345.2057BLANCO Ramon45BEL2:07:132:07:485:27 11.03150VE1502TIHANGE
346.2004HIBO Pierre47BEL2:07:322:07:535:27 11.03151VE1499SAINT-SERVAIS
347.2295GABRIEL Frederic31BELARCH2:07:412:07:555:27 11.02103SEN497ROCHEFORT
348.2023FVAN DE LAAR Antoinette49NLDS.V. FORTUNA '62:07:532:07:585:27 11.0212AI1495EERDE
349.425MOREAU Jean-Louis46BELJCCS2:07:262:08:005:27 11.02152VE1498TOERNICH
350.2041ENGELTJES Roel47NLDDOKEN2:07:382:08:005:27 11.02153VE10ANNA PAULOWNA
351.2248COQUEREAU Daniel42BEL2:07:312:08:095:28 11.00154VE1496HOUDENG-AIMREIES
352.1163PICOTE Jose54BEL2:07:562:08:135:28 11.0051VE2493
353.2419SCHRAEPEN Jos48BEL2:08:022:08:155:28 10.99155VE1491ALKEN
354.2493BASTIN Claude56BELJACO2:07:322:08:205:28 10.9952VE2495CHIMAY
354.2551FOSTIER Jean Luc41BELJACO2:07:322:08:205:28 10.99156VE1495
356.317GUIRCHE Albert54BELSPIBOR2:08:132:08:215:28 10.9953VE2488BOUSSU
357.617BAIJOT Bernard45BELJCCS2:08:002:08:335:29 10.97157VE1489HOUDREMONT
358.886FRUFFELET Francoise43BELJC HSH2:07:582:08:355:29 10.9713AI1489MONT SUR MARCHIENNE
359.1495MERTENS Marc40BELSMAC2:08:072:08:415:29 10.96158VE1487MALONNE
360.2547THEYS Vincent42BEL2:08:242:08:465:29 10.95159VE1485SAINT AMAND
361.416DE WILDE Marc38BEL2:08:082:08:485:29 10.95104SEN486
362.2042FJANSEN Arjaan64NLDARV ACHILLES2:08:472:09:145:30 10.911AI3481
363.2601ECHERNENT Maxime31BEL2:08:492:09:245:31 10.90105SEN480
364.1378MELON Jean-Marc48BELNAC2:09:052:09:275:31 10.89160VE1477BAULERS
365.1414SANTOCOHO Luca16BEL2:09:012:09:325:31 10.898ESP477
366.155AKKERMANS Francois56BEL2:09:212:09:395:32 10.8854VE2474BRASSCHAAT
367.2468LEHAIRE Philippe55BELJ.E.T.2:09:202:09:415:32 10.8755VE2473ENGHIEN
368.2276DHAENE Rudi44BELGRIMBERGSE JC2:09:232:09:425:32 10.87161VE1473GRIMBERGEN
369.2309GREGOIRE Claude46BEL2:09:362:09:595:32 10.85162VE1470NAMUR
370.2548FGOFFINET Florence28BELSMAC2:09:252:10:015:32 10.8414DAM471JAMBES (NAMUR)
371.2030WIJFFELAARS Henry50NLDS.V. FORTUNA '62:10:002:10:075:33 10.8456VE2466SINT-OEDENRODE
372.673CAMPION Sylvain43BEL2:09:432:10:165:33 10.82163VE1468DIEPENBEEK
373.2387NEYS Guido60BELASSA2:10:172:10:205:33 10.828VE3463GENT
374.2242CLARINVAL Benoit47BELJCCS2:09:502:10:245:33 10.81164VE1466GEDINNE
375.2058STATSYNS J.-Francois39BEL2:10:052:10:265:34 10.81106SEN463COURT SAINT ETIENNE
376.2357LELEU Laurent36BEL2:10:002:10:285:34 10.81107SEN463ANHÉE
377.790FOLIE Yvon49BEL2:09:532:10:285:34 10.81165VE1464AWENNE (SAINT-HUBERT)
378.2566VERMOFSTEDF Guy43BEL2:10:152:10:305:34 10.80166VE1460
379.2047FBRENNER Anne27FRAASPTT2:09:452:10:315:34 10.8015DAM465
380.2596DESMET Robert56BEL2:09:572:10:355:34 10.8057VE2462
381.2499FGUILLAUME Corinne37BELVO2NAM2:10:142:10:415:34 10.7916DAM459NAMUR
382.2518SORNASSE Pascal47BELSMAC2:10:072:10:435:34 10.79167VE1459BEUZET
383.2373FMARTIN Marie Claude44FRAFJEP ATTIGNY2:10:382:10:515:35 10.7814AI1455ATTIGNY
384.2007LEFEVERE Alain47BELACA2:10:502:11:035:35 10.76168VE1453SINT-TROND
385.375HERMANS Luc56BEL2:10:522:11:085:35 10.7558VE2452LIBIN
386.1365STREBER Fernand51BELARCH2:11:092:11:165:36 10.7459VE2449SERINCHAMPS
387.2220BESOHÉ Alain41BEL2:11:012:11:195:36 10.74169VE1450ANSEREMME
388.2463INGELS Didier47BEL2:11:322:11:415:37 10.71170VE1445GRAND-ROSIERE
389.2522HAINAUT Charles47BEL2:11:052:11:455:37 10.70171VE1448
390.2453WOIT Jean-Christophe32BEL2:11:012:11:495:37 10.70108SEN448HUY
391.56MONFORT Andre71BELONHHAC2:12:022:12:065:38 10.671VE4439SOIGNIES
392.2501FTILQUIN Nathalie41BEL2:11:332:12:095:38 10.6715AI1443
393.665LACAILLE Guy54BELNAC2:11:402:12:105:38 10.6760VE2441NIVELLES
394.368VIAENE Bernard61BELHAC2:12:052:12:245:39 10.659VE3437HERVE
395.2231FBOULANGER Carmen55FRA2:12:182:12:305:39 10.644AI2435OLIVET
396.1051FSEMAY Elke36BELRIWA2:12:212:12:335:39 10.6417DAM434ANTWERPEN
397.2558ZEGERS Rolland50BELGRIMBERGSE JC2:12:192:12:355:39 10.6361VE2434EVERE
398.2039CUVELIER Serge46BEL2:12:192:12:415:39 10.63172VE1433LIVES SUR MEUSE
399.440ETIENNE Christian55BELRCNAMUR2:12:192:12:485:40 10.6262VE2433LEUZE-LONGCHAMPS
400.2436VAN GRAMBEREN Eugène49BELDCLA2:12:092:12:525:40 10.61173VE1434HEVERLEE
401.612MEUWIS Joel44BELUFO2:12:352:13:075:40 10.59174VE1430JODOIGNE
402.2475CATTOOR Georges57BELSODIBRUGSODIBURG2:12:552:13:095:40 10.5963VE2427BRUGGE
403.2382MOLORD Thierry49BELJOGGING NATURE2:12:262:13:105:40 10.59175VE1430JUMET
404.2062HENSGENS Jan52BEL2:13:112:13:145:41 10.5864VE2424
405.2793NR 2793 BEL2:12:432:13:175:41 10.583XXX427
406.2238CATEL Alain58FRA2:12:442:13:265:41 10.5765VE2426MOGNEVILLE
407.2486SACHERS Rodolphe51BELPASS RUNNING2:13:252:13:445:42 10.5466VE2420
408.2455ZWIJSEN Luc47BELGRIMBERGSE JC2:13:342:13:515:42 10.53176VE1419GRIMBERGEN
409.2020SOUGNEZ Jean Luc49BEL2:13:122:13:535:42 10.53177VE1421FRANIERE
410.2366LUYCKX Wim43BELHARAKA2:13:322:13:535:42 10.53178VE1418HEMIKSEM
411.2272FDEOM Françoise41BELALLURE LIBRE GA2:14:042:14:135:43 10.5116AI1413MUSSON
412.2362LIVEMONT Emmanuel45BELRRTCHATELET2:14:052:14:135:43 10.51179VE1413SUARLÉE
413.2228BOUGARD Bernard59BELMARIEMONT2:13:272:14:165:43 10.5067VE2417CARNIERES
414.2051MALORGIO Attilio47BELJC SABCA2:13:382:14:185:43 10.50180VE1415
415.1551SAUCIN Luc45BELUACRRTC2:13:292:14:225:44 10.49181VE1416CHATELET
416.2448VERBRUGGEN Frank42BELGRIMBERGSE JC2:14:112:14:285:44 10.49182VE1410GRIMBERGEN
417.2552MAVROUDIS Nicolas47BEL2:14:002:14:375:44 10.47183VE1411
418.2399PORRU Gino48BEL2:13:532:14:395:44 10.47184VE1411JUMET
419.2471LACOUR Albert58BEL2:14:322:14:415:44 10.4768VE2405ANGRE
420.2549FRANSSEN Benjamin46BELD-TEAM2:14:052:14:435:44 10.47185VE1409CORTIL-WODON
421.318STICKER Johan47BELOXYGENE2:14:072:14:505:45 10.46186VE1408BIERCEE
422.1661COOREMANS Guy40BEL2:14:302:14:545:45 10.45187VE1404SOYE
423.990GODELET Christian36BELFOUL PLAIS2:14:172:14:575:45 10.45109SEN405HUY
424.2269DEHON Bernard44BEL2:14:342:14:575:45 10.45188VE1403DINANT
425.500SCHUYTEN Aime48BELANTILOB2:14:312:15:105:46 10.43189VE1403HAMME-MILLE
426.2274FDESCLIN Joelle50BEL2:14:352:15:205:46 10.425AI2402JUMET
427.2265DE SOUSA Manuel47BEL2:14:352:15:205:46 10.42190VE1401JUMET
428.2479COTTE Thierry41FRAALSTOM2:14:582:15:295:46 10.41191VE1397PARIS
429.2346FLAINE Claudine33BELRC NAMUR2:14:562:15:335:47 10.4018DAM397FLOREFFE
430.741WOUTERS Louis70BEL2:15:262:15:415:47 10.392VE4393HELCHTEREN
431.2356LEFEVRE Joel52BELRIWA2:15:302:15:435:47 10.3969VE2392RIXENSART
432.2587ERNSTER Nicolas33LUXLUXEMBURG2:15:272:15:505:47 10.38110SEN392
433.2530VOYEUX David34BEL2:15:442:15:555:48 10.37111SEN389AISEAU-PRESLES
434.2308GRANDJEAN Richard43FRAFJEP ATTIGNY2:15:502:16:005:48 10.37192VE1388ATTIGNY
435.2416SCHEPKENS Vincent39BELSQ ALP SPL BLEG2:15:362:16:175:48 10.35112SEN389FENEUR
436.125FVAN DER ZWALMEN Sabine26BELRIWA2:16:012:16:295:49 10.3319DAM385LASNE
437.2255CULLOT Olivier46FRAASPTT CHARLEVIL2:15:462:16:335:49 10.33193VE1387MONTCY-NOTRE-DAME
438.209GODEFRIDI Thierry55BEL2:16:072:16:365:49 10.3270VE2383RIXENSART
439.865SANTOCONO Jerome45BELACLO2:16:092:16:415:49 10.32194VE1383MORLANWELZ
440.2386NEUGNOT Michel56FRASEMUR AUXOIS2:16:222:16:425:50 10.3171VE2381SEMUR AUXOIS
441.2222BILLION Eric40BEL2:16:122:16:435:50 10.31195VE1382SAINT-MARD
442.274LEFEBVRE Andre40FRA2:16:172:16:475:50 10.31196VE1380SAPOGNE SUR MARCHE
443.1217LAMBOTTE Eric42BELHRC2:16:162:16:485:50 10.31197VE1380RULLES
444.1216RASBASH Andrew52BEL2:15:532:16:495:50 10.3172VE20BRUXELLES
445.2310GRIBOUT Gilles49FRAPSA ACC2:16:072:16:525:50 10.30198VE1380FLIZE
446.1926LEJEUNE Christian57BEL16502:16:462:16:575:50 10.3073VE2374VERVIERS
447.2036DAME Jean-Marie46BELTORTUES MESLIN2:16:332:17:045:50 10.29199VE1376SILLY
448.1560VANDERSMISSEN Marcel70BEL2:17:092:17:175:51 10.273VE4370STEVOORT HASSELT
449.2389NOEL Gerard54BELARCH2:16:422:17:205:51 10.2774VE2374NATOYE
450.255FOURNY Philippe51BELSERSERUNNER2:17:162:17:275:51 10.2675VE2368CHAUDFONTAINE
451.2254FCULLOT Anne48FRAASPTT CHARLEVIL2:16:422:17:285:51 10.2617AI1372MONTCY-NOTRE-DAME
452.2364LORITTE Joël50FRAPSA ACC2:16:442:17:295:52 10.2676VE2372CHARLEVILLE MEZIERES
453.2428FTHAREAU Claire57FRA2:16:582:17:395:52 10.246AI2370VINCENNES
454.408LAENENS Francis55BELRCBAXA TEAM2:17:192:17:465:52 10.2377VE2366WEMMEL
455.2206ANDRE Valery35BEL2:17:412:17:515:52 10.23113SEN363BRUXELLES
456.2409FROBIN Gisèle63FRA2:17:102:17:525:52 10.232AI3366MOGNEVILLE
457.2365FLUPCIN Brigitte41BEL2:17:382:17:565:53 10.2218AI1362REVOGNE_BEAURAING
458.1427FMARION Paulette47BELARCH2:18:012:18:085:53 10.2119AI1359CINEY
459.275SIMAL J.Pierre59BELVICO2:17:272:18:145:53 10.2078VE2363TIHANGE
460.2573COPPENS Guy50BEL2:18:072:18:185:54 10.2079VE2357
461.2246FCOLPAERT Christine45BELRIWA2:17:592:18:205:54 10.1920AI1358RIXENSART
462.2293FORAIN Bernard42BEL2:17:482:18:305:54 10.18200VE1359ERPENT
463.2338KOCKEN Ludwig46BELRC NAMUR2:17:502:18:365:54 10.17201VE1358SART-BERNARD
464.2427TAVIER Pascal44BELJC THIMEON2:18:162:18:455:55 10.16202VE1354THIMEON
465.1635FDIDEBERG Gaby48BELSCBUTG2:18:392:18:585:55 10.1521AI1350STAVELOT
466.1633JARDON Paul51BELSCBUTG2:18:382:18:595:55 10.1580VE2350STAVELOT
467.192GEUSKENS J.Marc42BEL2:18:272:19:005:55 10.14203VE1351BRUXELLES
468.2224BOEN Luc54BELHARAKA2:18:412:19:015:55 10.1481VE2349NIEL
469.1304LOTENS Yvan51BELTORTUES2:18:342:19:065:56 10.1482VE2349MESLIN L'EVEQUE
470.2510VANDERHAEGEN Jacques49BELVELAINES2:18:362:19:085:56 10.13204VE1348ELLEZELLES
471.2527VERBEKE Mickael18BELSODIBRUG2:18:582:19:115:56 10.139ESP345BRUGGE
472.1347DE CALUWE Jean-Pierre50BEL2:19:002:19:135:56 10.1383VE2344BRUGGE
473.1006PIRSON Georges43BELHRC2:18:432:19:185:56 10.12205VE1346LIBRAMONT
474.2035COMANDINI Luciano50BELUACR.R.T.CHAT2:18:262:19:195:56 10.1284VE2348MONTIGNIES SUR SAMBRE
475.2456CAMPERS Gerald46BEL2:18:492:19:205:56 10.12206VE1344SAINT-MARC
476.2543GIRAUD Denis46FRA2:18:502:19:205:56 10.12207VE1344GIVET
477.2485LUDWIG Alain42BEL2:18:412:19:225:56 10.12208VE1344
478.1878ROMAIN Bernard49BELJAMES2:18:542:19:265:56 10.11209VE1342CHASTRE
479.2043KIEWIT Jan52NLDARV ACHILLES2:19:102:19:365:57 10.1085VE20
480.1432FSALENS Lia41BEL2:19:082:19:415:57 10.0922AI1339WOLVERTEM
481.2018FSMULDERS Nicolien49NLDS.V. FORTUNA '62:19:342:19:425:57 10.0923AI1335SINT-OEDENRODE
482.242VAN ESPEN Michel51BELACLO2:19:162:19:485:57 10.0986VE2337HAINE SAINT PIERRE
483.2406RIGGI Philippe50FRAASPTT CHARLEVIL2:19:112:19:565:58 10.0887VE2337CHARLEVILLE-MÉZIÈRES
484.1159LAFFINEUR Christian52BELLA THURE2:19:142:19:565:58 10.0888VE2337RENLIES
485.2593DEROCK Robert56BELBON REPOS2:19:362:19:585:58 10.0789VE2333
486.2444VANKEIJENBERG John47BEL2:20:022:20:095:58 10.06210VE1329TIENEN
487.178HENDRIX Daniel59BELESM2:19:302:20:105:58 10.0690VE2333GILLY
488.2537JANVENIER Vincent33BEL2:20:062:20:185:59 10.05114SEN328
489.2328IURLARO Valter52BEL2:19:412:20:285:59 10.0491VE2330JUMET
490.2243COLIN Alexandre43BELAC DAMPICOURT2:20:082:20:315:59 10.03211VE1327DAMPICOURT
491.2504FBRICE Jean-Marie51BEL2:20:072:20:376:00 10.037AI2326
492.261BOZ Jean-Charles58BELUACDILAVILE2:20:112:20:406:00 10.0292VE2325CHATELINEAU
493.2257DE BEULE Antoin56BELRUN FOR FUN2:20:172:20:416:00 10.0293VE2324ZWALM
494.2280DOYEN Marc55BELRUNPRO2:20:372:20:506:00 10.0194VE2321BOIS-DE-VILLERS
495.1461FPAAL Marguerite38BEL2:20:282:20:556:00 10.0120DAM322
496.2294FFUMIERE Savita38BEL2:20:132:20:586:00 10.0021DAM323JUMET
497.1579FGREGOIRE Aude18BELSMACRC NAMUR2:20:152:21:006:00 10.001ESF322FLAWINNE
498.186FCOURTOIS Valerie39BELJCCS2:20:412:21:046:01 10.0022DAM318GEDINNE
499.2505VAN PARIDON Kees51NLDDOKEN2:21:312:21:546:03 9.9495VE2312ANNA PAULOWNA
500.2498BERTOLUTTI Damien26BEL2:21:132:22:046:03 9.92115SEN313
DNF: abandon; DSQ: disqualifié; Vitesse en km/h
Page: [1] 2